createdAt,value
2024-01-20T00:01:19.362Z,24.05
2024-01-20T00:04:07.065Z,19.55
2024-01-20T00:06:55.026Z,14.70
2024-01-20T00:09:49.899Z,18.52
2024-01-20T00:12:40.091Z,17.30
2024-01-20T00:15:27.356Z,18.00
2024-01-20T00:18:14.798Z,18.05
2024-01-20T00:21:02.425Z,15.27
2024-01-20T00:23:50.384Z,11.48
2024-01-20T00:26:37.694Z,13.57
2024-01-20T00:29:25.215Z,15.02
2024-01-20T00:32:12.790Z,11.40
2024-01-20T00:35:06.936Z,15.70
2024-01-20T00:37:55.684Z,14.05
2024-01-20T00:40:42.967Z,11.45
2024-01-20T00:43:30.137Z,11.52
2024-01-20T00:46:17.351Z,10.57
2024-01-20T00:49:04.726Z,18.50
2024-01-20T00:51:51.967Z,15.32
2024-01-20T00:54:39.306Z,20.13
2024-01-20T00:57:26.530Z,14.20
2024-01-20T01:00:14.133Z,17.70
2024-01-20T01:03:01.367Z,16.52
2024-01-20T01:05:48.643Z,12.20
2024-01-20T01:08:36.410Z,13.77
2024-01-20T01:11:24.176Z,14.95
2024-01-20T01:14:11.723Z,15.20
2024-01-20T01:16:59.088Z,14.88
2024-01-20T01:19:46.575Z,17.08
2024-01-20T01:22:33.927Z,14.77
2024-01-20T01:25:23.455Z,12.63
2024-01-20T01:28:10.673Z,20.42
2024-01-20T01:30:57.861Z,15.88
2024-01-20T01:33:45.294Z,16.48
2024-01-20T01:36:32.559Z,16.95
2024-01-20T01:39:21.409Z,16.40
2024-01-20T01:42:08.564Z,19.55
2024-01-20T01:44:55.923Z,16.58
2024-01-20T01:47:43.237Z,18.75
2024-01-20T01:50:30.848Z,16.08
2024-01-20T01:53:18.583Z,15.70
2024-01-20T01:56:06.733Z,18.20
2024-01-20T01:58:54.498Z,24.75
2024-01-20T02:01:42.036Z,25.42
2024-01-20T02:04:29.626Z,13.63
2024-01-20T02:07:17.914Z,18.77
2024-01-20T02:10:07.696Z,16.20
2024-01-20T02:12:55.378Z,17.23
2024-01-20T02:15:43.026Z,16.90
2024-01-20T02:18:30.663Z,17.92
2024-01-20T02:21:17.940Z,17.10
2024-01-20T02:24:08.913Z,12.95
2024-01-20T02:26:56.283Z,16.42
2024-01-20T02:29:43.611Z,12.65
2024-01-20T02:32:31.105Z,14.52
2024-01-20T02:35:20.090Z,14.48
2024-01-20T02:38:07.603Z,13.00
2024-01-20T02:40:54.904Z,22.17
2024-01-20T02:43:42.109Z,16.00
2024-01-20T02:46:29.378Z,27.58
2024-01-20T02:49:16.971Z,9.77
2024-01-20T02:52:04.518Z,14.93
2024-01-20T02:54:51.886Z,17.17
2024-01-20T02:57:39.260Z,18.10
2024-01-20T03:00:29.431Z,14.68
2024-01-20T03:03:17.026Z,9.13
2024-01-20T03:06:04.646Z,20.40
2024-01-20T03:08:52.175Z,13.45
2024-01-20T03:11:39.646Z,18.63
2024-01-20T03:14:27.324Z,16.13
2024-01-20T03:17:15.635Z,21.40
2024-01-20T03:20:02.904Z,15.25
2024-01-20T03:22:50.267Z,15.75
2024-01-20T03:25:37.461Z,14.10
2024-01-20T03:28:24.760Z,12.45
2024-01-20T03:31:12.308Z,19.65
2024-01-20T03:33:59.839Z,13.43
2024-01-20T03:36:48.523Z,15.23
2024-01-20T03:39:35.904Z,14.27
2024-01-20T03:42:23.945Z,11.57
2024-01-20T03:45:11.366Z,16.73
2024-01-20T03:48:00.278Z,8.35
2024-01-20T03:50:47.914Z,15.57
2024-01-20T03:53:35.158Z,20.25
2024-01-20T03:56:22.504Z,22.98
2024-01-20T03:59:10.056Z,19.05
2024-01-20T04:01:57.355Z,18.05
2024-01-20T04:04:44.716Z,22.85
2024-01-20T04:07:32.066Z,20.35
2024-01-20T04:10:19.458Z,19.13
2024-01-20T04:13:07.145Z,21.00
2024-01-20T04:15:55.891Z,15.63
2024-01-20T04:18:43.419Z,41.30
2024-01-20T04:21:32.481Z,20.77
2024-01-20T04:24:19.841Z,17.38
2024-01-20T04:27:07.044Z,20.13
2024-01-20T04:29:54.354Z,24.33
2024-01-20T04:32:41.605Z,23.85
2024-01-20T04:35:28.950Z,18.35
2024-01-20T04:38:16.097Z,17.45
2024-01-20T04:41:03.434Z,21.08
2024-01-20T04:43:50.676Z,16.63
2024-01-20T04:46:37.957Z,21.52
2024-01-20T04:49:25.479Z,19.45
2024-01-20T04:52:12.830Z,23.27
2024-01-20T04:55:00.865Z,15.35
2024-01-20T04:57:48.081Z,16.00
2024-01-20T05:00:36.852Z,22.55
2024-01-20T05:03:24.588Z,23.58
2024-01-20T05:06:12.101Z,24.85
2024-01-20T05:09:00.385Z,20.98
2024-01-20T05:11:47.627Z,29.63
2024-01-20T05:14:35.183Z,27.08
2024-01-20T05:17:22.715Z,26.45
2024-01-20T05:23:02.229Z,18.08
2024-01-20T05:25:49.720Z,19.70
2024-01-20T05:28:36.961Z,24.73
2024-01-20T05:31:25.893Z,29.52
2024-01-20T05:34:13.294Z,19.70
2024-01-20T05:37:00.641Z,22.90
2024-01-20T05:39:47.827Z,19.65
2024-01-20T05:42:35.212Z,19.13
2024-01-20T05:45:22.515Z,21.83
2024-01-20T05:48:09.992Z,27.70
2024-01-20T05:50:57.297Z,17.67
2024-01-20T05:53:44.479Z,20.10
2024-01-20T05:56:31.731Z,17.92
2024-01-20T05:59:18.959Z,25.30
2024-01-20T06:02:06.142Z,17.45
2024-01-20T06:04:53.352Z,16.70
2024-01-20T06:07:40.970Z,19.45
2024-01-20T06:10:28.491Z,20.88
2024-01-20T06:13:15.733Z,13.35
2024-01-20T06:16:03.109Z,19.88
2024-01-20T06:18:50.381Z,19.92
2024-01-20T06:21:37.819Z,30.73
2024-01-20T06:24:25.219Z,20.95
2024-01-20T06:27:12.542Z,26.83
2024-01-20T06:29:59.744Z,28.75
2024-01-20T06:32:47.605Z,31.25
2024-01-20T06:35:34.988Z,22.00
2024-01-20T06:38:22.295Z,30.17
2024-01-20T06:41:09.681Z,26.90
2024-01-20T06:43:57.145Z,35.92
2024-01-20T06:46:44.471Z,26.08
2024-01-20T06:49:31.938Z,24.77
2024-01-20T06:52:19.508Z,22.70
2024-01-20T06:55:06.950Z,20.83
2024-01-20T06:57:54.274Z,19.58
2024-01-20T07:00:41.601Z,20.30
2024-01-20T07:03:29.077Z,28.02
2024-01-20T07:06:16.529Z,19.30
2024-01-20T07:09:06.857Z,20.80
2024-01-20T07:11:56.709Z,21.73
2024-01-20T07:14:44.605Z,19.58
2024-01-20T07:17:32.422Z,21.67
2024-01-20T07:20:19.645Z,20.30
2024-01-20T07:23:07.087Z,23.23
2024-01-20T07:25:54.314Z,17.45
2024-01-20T07:28:41.981Z,23.90
2024-01-20T07:31:29.533Z,21.70
2024-01-20T07:34:17.323Z,21.73
2024-01-20T07:37:05.189Z,20.90
2024-01-20T07:39:52.450Z,23.65
2024-01-20T07:42:41.313Z,16.63
2024-01-20T07:45:28.677Z,22.50
2024-01-20T07:48:16.400Z,19.08
2024-01-20T07:51:04.017Z,24.42
2024-01-20T07:53:51.294Z,24.40
2024-01-20T07:56:38.932Z,23.92
2024-01-20T07:59:26.159Z,20.63
2024-01-20T08:02:14.281Z,22.23
2024-01-20T08:05:01.918Z,21.33
2024-01-20T08:07:49.400Z,17.08
2024-01-20T08:10:36.633Z,18.83
2024-01-20T08:13:24.335Z,25.48
2024-01-20T08:16:11.718Z,19.45
2024-01-20T08:18:59.197Z,27.88
2024-01-20T08:21:46.475Z,22.27
2024-01-20T08:24:33.744Z,21.35
2024-01-20T08:27:21.026Z,21.85
2024-01-20T08:30:08.818Z,21.55
2024-01-20T08:32:57.714Z,27.73
2024-01-20T08:35:46.016Z,23.13
2024-01-20T08:38:33.183Z,22.70
2024-01-20T08:41:20.382Z,21.33
2024-01-20T08:44:07.690Z,23.95
2024-01-20T08:46:55.891Z,27.75
2024-01-20T08:49:43.540Z,17.42
2024-01-20T08:52:31.493Z,19.85
2024-01-20T08:55:18.764Z,21.17
2024-01-20T08:58:06.044Z,18.33
2024-01-20T09:00:53.327Z,20.63
2024-01-20T09:03:41.167Z,18.45
2024-01-20T09:06:29.066Z,18.08
2024-01-20T09:09:17.470Z,18.95
2024-01-20T09:12:05.196Z,16.60
2024-01-20T09:14:52.545Z,15.63
2024-01-20T09:17:39.889Z,16.83
2024-01-20T09:20:27.475Z,18.40
2024-01-20T09:23:14.750Z,16.13
2024-01-20T09:26:03.341Z,20.05
2024-01-20T09:28:50.876Z,17.33
2024-01-20T09:31:39.065Z,19.05
2024-01-20T09:34:26.395Z,16.25
2024-01-20T09:37:14.761Z,17.45
2024-01-20T09:40:02.178Z,14.60
2024-01-20T09:42:50.237Z,15.13
2024-01-20T09:45:40.122Z,15.20
2024-01-20T09:48:27.693Z,15.75
2024-01-20T09:51:15.952Z,12.52
2024-01-20T09:54:03.274Z,15.57
2024-01-20T09:56:51.750Z,15.32
2024-01-20T09:59:43.539Z,16.98
2024-01-20T10:02:31.960Z,16.55
2024-01-20T10:05:24.880Z,13.98
2024-01-20T10:08:13.346Z,18.83
2024-01-20T10:11:07.497Z,16.38
2024-01-20T10:13:56.166Z,19.08
2024-01-20T10:16:43.521Z,16.77
2024-01-20T10:19:31.373Z,20.35
2024-01-20T10:22:18.881Z,15.43
2024-01-20T10:25:07.381Z,17.90
2024-01-20T10:27:54.776Z,19.50
2024-01-20T10:30:42.700Z,18.20
2024-01-20T10:33:30.124Z,17.40
2024-01-20T10:36:18.703Z,15.25
2024-01-20T10:39:08.303Z,14.85
2024-01-20T10:42:10.722Z,16.55
2024-01-20T10:45:03.732Z,14.63
2024-01-20T10:48:01.437Z,16.13
2024-01-20T10:50:58.036Z,13.80
2024-01-20T10:53:47.699Z,16.35
2024-01-20T10:56:37.396Z,16.45
2024-01-20T10:59:28.876Z,13.90
2024-01-20T11:02:16.440Z,15.82
2024-01-20T11:05:04.772Z,15.75
2024-01-20T11:08:09.486Z,15.57
2024-01-20T11:10:56.826Z,16.42
2024-01-20T11:13:46.496Z,16.35
2024-01-20T11:16:34.455Z,15.43
2024-01-20T11:19:21.900Z,18.58
2024-01-20T11:22:31.220Z,15.25
2024-01-20T11:25:20.152Z,16.92
2024-01-20T11:28:07.418Z,18.13
2024-01-20T11:30:54.740Z,16.45
2024-01-20T11:33:42.282Z,15.55
2024-01-20T11:36:31.757Z,15.13
2024-01-20T11:39:20.311Z,14.32
2024-01-20T11:42:09.276Z,17.00
2024-01-20T11:44:56.599Z,14.52
2024-01-20T11:47:44.424Z,14.98
2024-01-20T11:50:32.204Z,16.80
2024-01-20T11:53:23.004Z,18.80
2024-01-20T11:56:10.416Z,17.45
2024-01-20T11:58:57.706Z,16.80
2024-01-20T12:01:45.104Z,14.95
2024-01-20T12:04:32.401Z,14.32
2024-01-20T12:07:20.302Z,17.15
2024-01-20T12:10:08.742Z,14.52
2024-01-20T12:12:56.189Z,15.07
2024-01-20T12:15:43.696Z,13.93
2024-01-20T12:18:31.347Z,14.45
2024-01-20T12:21:18.732Z,14.07
2024-01-20T12:24:32.533Z,17.33
2024-01-20T12:27:20.168Z,12.55
2024-01-20T12:30:08.020Z,14.77
2024-01-20T12:32:57.366Z,15.25
2024-01-20T12:35:44.818Z,13.27
2024-01-20T12:38:32.527Z,13.60
2024-01-20T12:41:19.868Z,14.65
2024-01-20T12:44:07.083Z,14.32
2024-01-20T12:46:54.844Z,12.82
2024-01-20T12:49:42.520Z,17.90
2024-01-20T12:52:29.837Z,13.95
2024-01-20T12:55:17.110Z,12.90
2024-01-20T12:58:04.549Z,13.48
2024-01-20T13:00:51.912Z,12.73
2024-01-20T13:03:39.233Z,12.43
2024-01-20T13:06:26.786Z,12.73
2024-01-20T13:09:14.343Z,12.40
2024-01-20T13:12:03.670Z,13.40
2024-01-20T13:14:51.141Z,13.48
2024-01-20T13:17:38.464Z,11.40
2024-01-20T13:20:25.815Z,12.13
2024-01-20T13:23:13.181Z,12.15
2024-01-20T13:26:01.922Z,10.77
2024-01-20T13:28:49.835Z,13.50
2024-01-20T13:31:37.091Z,13.00
2024-01-20T13:34:24.460Z,12.55
2024-01-20T13:37:11.710Z,13.10
2024-01-20T13:39:59.038Z,12.80
2024-01-20T13:42:46.396Z,13.40
2024-01-20T13:45:33.983Z,11.70
2024-01-20T13:48:21.338Z,13.02
2024-01-20T13:51:08.701Z,12.43
2024-01-20T13:53:56.043Z,12.90
2024-01-20T13:56:43.294Z,13.93
2024-01-20T13:59:30.693Z,13.50
2024-01-20T14:02:17.867Z,13.05
2024-01-20T14:05:05.332Z,13.25
2024-01-20T14:07:52.818Z,13.90
2024-01-20T14:10:40.006Z,15.40
2024-01-20T14:13:27.361Z,13.30
2024-01-20T14:16:14.598Z,15.60
2024-01-20T14:19:08.090Z,12.63
2024-01-20T14:21:56.452Z,12.55
2024-01-20T14:24:43.686Z,12.43
2024-01-20T14:27:30.930Z,14.95
2024-01-20T14:30:18.835Z,13.55
2024-01-20T14:33:06.290Z,16.95
2024-01-20T14:35:54.467Z,15.35
2024-01-20T14:38:41.729Z,14.95
2024-01-20T14:41:28.902Z,15.45
2024-01-20T14:44:16.327Z,18.30
2024-01-20T14:47:04.029Z,12.23
2024-01-20T14:49:51.302Z,15.65
2024-01-20T14:52:38.650Z,14.40
2024-01-20T14:55:27.194Z,17.75
2024-01-20T14:58:15.997Z,15.95
2024-01-20T15:01:04.116Z,12.30
2024-01-20T15:03:51.509Z,13.93
2024-01-20T15:06:38.784Z,14.85
2024-01-20T15:09:26.864Z,14.27
2024-01-20T15:12:14.186Z,14.07
2024-01-20T15:15:01.546Z,12.70
2024-01-20T15:17:48.902Z,13.57
2024-01-20T15:20:37.227Z,12.88
2024-01-20T15:23:25.049Z,12.75
2024-01-20T15:26:16.232Z,14.18
2024-01-20T15:31:50.789Z,10.98
2024-01-20T15:34:39.233Z,11.50
2024-01-20T15:37:26.578Z,9.93
2024-01-20T15:40:14.030Z,14.98
2024-01-20T15:43:01.548Z,12.82
2024-01-20T15:45:49.011Z,11.52
2024-01-20T15:48:36.433Z,12.60
2024-01-20T15:51:23.747Z,16.77
2024-01-20T15:54:11.145Z,13.40
2024-01-20T15:56:58.411Z,14.82
2024-01-20T15:59:45.723Z,13.27
2024-01-20T16:02:33.196Z,13.88
2024-01-20T16:05:20.763Z,16.05
2024-01-20T16:08:08.121Z,15.38
2024-01-20T16:10:55.447Z,17.38
2024-01-20T16:13:42.597Z,17.92
2024-01-20T16:16:30.117Z,17.85
2024-01-20T16:19:18.371Z,19.25
2024-01-20T16:22:05.711Z,13.95
2024-01-20T16:24:52.907Z,12.90
2024-01-20T16:27:40.370Z,10.88
2024-01-20T16:30:27.862Z,12.82
2024-01-20T16:33:15.273Z,14.32
2024-01-20T16:36:02.537Z,19.42
2024-01-20T16:38:49.804Z,13.65
2024-01-20T16:41:37.338Z,14.68
2024-01-20T16:44:24.563Z,11.77
2024-01-20T16:47:11.792Z,12.80
2024-01-20T16:49:59.308Z,12.20
2024-01-20T16:52:46.769Z,15.43
2024-01-20T16:55:37.460Z,13.25
2024-01-20T16:58:24.919Z,13.15
2024-01-20T17:01:12.335Z,12.98
2024-01-20T17:04:00.044Z,14.63
2024-01-20T17:06:49.687Z,14.50
2024-01-20T17:09:36.967Z,21.95
2024-01-20T17:12:26.525Z,12.90
2024-01-20T17:15:13.999Z,17.08
2024-01-20T17:18:02.511Z,15.27
2024-01-20T17:20:49.807Z,12.43
2024-01-20T17:23:37.121Z,12.80
2024-01-20T17:26:31.745Z,18.95
2024-01-20T17:29:19.176Z,13.77
2024-01-20T17:32:06.975Z,19.25
2024-01-20T17:34:54.373Z,15.20
2024-01-20T17:37:41.616Z,16.90
2024-01-20T17:40:28.918Z,11.93
2024-01-20T17:43:16.303Z,15.00
2024-01-20T17:46:03.625Z,17.45
2024-01-20T17:48:50.914Z,14.13
2024-01-20T17:51:40.650Z,13.43
2024-01-20T17:54:32.713Z,12.85
2024-01-20T17:57:20.461Z,15.93
2024-01-20T18:00:10.683Z,15.02
2024-01-20T18:02:59.666Z,14.18
2024-01-20T18:05:47.120Z,17.17
2024-01-20T18:08:34.965Z,17.02
2024-01-20T18:11:22.633Z,15.60
2024-01-20T18:14:09.974Z,12.50
2024-01-20T18:16:57.278Z,14.75
2024-01-20T18:19:44.553Z,11.82
2024-01-20T18:22:32.771Z,12.07
2024-01-20T18:25:20.104Z,13.23
2024-01-20T18:28:07.734Z,10.95
2024-01-20T18:30:55.397Z,10.88
2024-01-20T18:33:42.999Z,14.90
2024-01-20T18:36:30.298Z,13.10
2024-01-20T18:39:17.989Z,11.68
2024-01-20T18:42:06.078Z,10.55
2024-01-20T18:44:54.114Z,9.50
2024-01-20T18:47:47.329Z,8.57
2024-01-20T18:50:35.882Z,10.45
2024-01-20T18:53:23.099Z,13.65
2024-01-20T18:56:10.388Z,10.18
2024-01-20T18:58:57.816Z,10.82
2024-01-20T19:01:45.109Z,8.60
2024-01-20T19:04:32.883Z,10.93
2024-01-20T19:07:20.185Z,8.70
2024-01-20T19:10:11.083Z,11.68
2024-01-20T19:12:58.531Z,11.50
2024-01-20T19:15:48.964Z,15.43
2024-01-20T19:18:38.603Z,8.57
2024-01-20T19:21:26.157Z,8.57
2024-01-20T19:24:15.668Z,9.43
2024-01-20T19:27:03.700Z,12.30
2024-01-20T19:29:51.903Z,8.95
2024-01-20T19:32:39.731Z,11.98
2024-01-20T19:35:27.552Z,8.57
2024-01-20T19:38:15.095Z,11.32
2024-01-20T19:41:02.958Z,10.43
2024-01-20T19:43:50.158Z,14.35
2024-01-20T19:46:41.074Z,12.80
2024-01-20T19:49:28.656Z,8.18
2024-01-20T19:52:16.280Z,10.88
2024-01-20T19:55:06.065Z,8.52
2024-01-20T19:57:53.440Z,9.85
2024-01-20T20:00:40.725Z,9.82
2024-01-20T20:03:28.481Z,8.75
2024-01-20T20:06:15.929Z,8.43
2024-01-20T20:09:03.745Z,5.30
2024-01-20T20:11:51.183Z,6.13
2024-01-20T20:14:38.781Z,8.00
2024-01-20T20:17:26.441Z,5.65
2024-01-20T20:20:13.896Z,5.55
2024-01-20T20:23:01.076Z,7.07
2024-01-20T20:25:48.411Z,9.02
2024-01-20T20:28:36.427Z,9.10
2024-01-20T20:31:25.875Z,5.75
2024-01-20T20:34:13.421Z,5.75
2024-01-20T20:37:00.924Z,4.63
2024-01-20T20:39:50.035Z,5.65
2024-01-20T20:42:37.932Z,6.00
2024-01-20T20:45:25.240Z,4.32
2024-01-20T20:48:12.745Z,5.75
2024-01-20T20:51:00.287Z,8.77
2024-01-20T20:53:47.537Z,5.97
2024-01-20T20:56:34.873Z,5.15
2024-01-20T20:59:22.279Z,4.15
2024-01-20T21:02:09.903Z,2.90
2024-01-20T21:04:57.338Z,2.95
2024-01-20T21:07:45.207Z,2.45
2024-01-20T21:10:34.097Z,2.92
2024-01-20T21:13:21.310Z,1.75
2024-01-20T21:16:08.647Z,3.10
2024-01-20T21:18:57.949Z,4.30
2024-01-20T21:21:45.644Z,4.90
2024-01-20T21:24:33.345Z,3.28
2024-01-20T21:27:22.663Z,3.67
2024-01-20T21:30:10.825Z,3.17
2024-01-20T21:32:58.175Z,3.63
2024-01-20T21:35:45.443Z,2.47
2024-01-20T21:38:33.174Z,4.25
2024-01-20T21:41:20.603Z,3.55
2024-01-20T21:44:07.950Z,2.50
2024-01-20T21:46:55.342Z,3.83
2024-01-20T21:49:42.721Z,4.65
2024-01-20T21:52:29.993Z,2.55
2024-01-20T21:55:17.291Z,4.90
2024-01-20T21:58:04.771Z,3.97
2024-01-20T22:00:52.042Z,3.22
2024-01-20T22:03:39.385Z,4.28
2024-01-20T22:06:26.872Z,2.47
2024-01-20T22:09:14.494Z,7.15
2024-01-20T22:12:01.731Z,3.03
2024-01-20T22:14:48.954Z,3.78
2024-01-20T22:17:36.211Z,4.30
2024-01-20T22:20:24.222Z,5.10
2024-01-20T22:23:11.843Z,4.10
2024-01-20T22:25:59.263Z,3.13
2024-01-20T22:28:47.361Z,3.63
2024-01-20T22:31:34.742Z,5.03
2024-01-20T22:34:22.213Z,3.92
2024-01-20T22:37:09.619Z,6.03
2024-01-20T22:39:56.872Z,5.32
2024-01-20T22:42:44.212Z,7.03
2024-01-20T22:45:31.593Z,6.90
2024-01-20T22:48:19.695Z,4.72
2024-01-20T22:51:06.983Z,4.30
2024-01-20T22:53:54.277Z,4.78
2024-01-20T22:56:41.637Z,7.72
2024-01-20T22:59:28.997Z,4.72
2024-01-20T23:02:16.485Z,6.82
2024-01-20T23:05:04.039Z,6.25
2024-01-20T23:07:51.522Z,5.18
2024-01-20T23:10:38.725Z,4.30
2024-01-20T23:13:25.995Z,11.63
2024-01-20T23:16:14.669Z,6.03
2024-01-20T23:19:02.077Z,5.05
2024-01-20T23:21:49.510Z,5.38
2024-01-20T23:24:36.782Z,5.47
2024-01-20T23:27:24.030Z,5.35
2024-01-20T23:30:12.780Z,6.90
2024-01-20T23:33:03.445Z,4.82
2024-01-20T23:35:50.813Z,5.22
2024-01-20T23:38:38.037Z,6.80
2024-01-20T23:41:26.042Z,5.38
2024-01-20T23:44:15.452Z,4.90
2024-01-20T23:47:02.697Z,5.97
2024-01-20T23:49:49.940Z,5.70
2024-01-20T23:52:37.601Z,6.95
2024-01-20T23:55:25.015Z,5.72
2024-01-20T23:58:12.509Z,5.95
